createdAt,value
2022-12-28T00:00:11.583Z,-2.61
2022-12-28T00:00:42.663Z,-2.61
2022-12-28T00:01:14.937Z,-2.61
2022-12-28T00:01:46.210Z,-2.61
2022-12-28T00:02:18.304Z,-2.61
2022-12-28T00:02:50.440Z,-2.61
2022-12-28T00:03:22.874Z,-2.61
2022-12-28T00:03:54.233Z,-2.61
2022-12-28T00:04:26.124Z,-2.61
2022-12-28T00:04:58.225Z,-2.61
2022-12-28T00:05:30.578Z,-2.61
2022-12-28T00:06:03.180Z,-2.61
2022-12-28T00:06:34.259Z,-2.61
2022-12-28T00:07:06.146Z,-2.61
2022-12-28T00:07:38.143Z,-2.61
2022-12-28T00:08:10.114Z,-2.61
2022-12-28T00:08:42.375Z,-2.61
2022-12-28T00:09:14.425Z,-2.61
2022-12-28T00:09:46.018Z,-2.61
2022-12-28T00:10:18.129Z,-2.61
2022-12-28T00:11:27.777Z,-2.50
2022-12-28T00:11:49.995Z,-2.50
2022-12-28T00:12:22.025Z,-2.50
2022-12-28T00:12:53.910Z,-2.50
2022-12-28T00:13:09.921Z,-2.50
2022-12-28T00:13:41.686Z,-2.50
2022-12-28T00:14:25.768Z,-2.50
2022-12-28T00:14:57.901Z,-2.50
2022-12-28T00:15:30.116Z,-2.50
2022-12-28T00:16:01.962Z,-2.50
2022-12-28T00:16:34.143Z,-2.50
2022-12-28T00:17:05.756Z,-2.50
2022-12-28T00:17:37.458Z,-2.50
2022-12-28T00:18:09.615Z,-2.50
2022-12-28T00:18:41.849Z,-2.50
2022-12-28T00:19:13.877Z,-2.50
2022-12-28T00:19:45.502Z,-2.50
2022-12-28T00:20:17.788Z,-2.50
2022-12-28T00:20:49.483Z,-2.50
2022-12-28T00:21:21.824Z,-2.50
2022-12-28T00:21:53.587Z,-2.61
2022-12-28T00:22:25.368Z,-2.50
2022-12-28T00:22:57.415Z,-2.50
2022-12-28T00:23:29.451Z,-2.50
2022-12-28T00:24:01.479Z,-2.50
2022-12-28T00:24:33.539Z,-2.50
2022-12-28T00:24:49.348Z,-2.50
2022-12-28T00:25:21.594Z,-2.38
2022-12-28T00:25:37.299Z,-2.38
2022-12-28T00:26:09.249Z,-2.38
2022-12-28T00:26:41.299Z,-2.38
2022-12-28T00:27:13.487Z,-2.38
2022-12-28T00:27:45.360Z,-2.50
2022-12-28T00:28:17.147Z,-2.50
2022-12-28T00:28:49.094Z,-2.50
2022-12-28T00:29:21.517Z,-2.50
2022-12-28T00:29:53.326Z,-2.50
2022-12-28T00:30:25.453Z,-2.50
2022-12-28T00:30:57.103Z,-2.50
2022-12-28T00:31:29.044Z,-2.50
2022-12-28T00:32:01.299Z,-2.50
2022-12-28T00:32:33.146Z,-2.38
2022-12-28T00:32:49.044Z,-2.38
2022-12-28T00:33:33.307Z,-2.38
2022-12-28T00:34:05.315Z,-2.38
2022-12-28T00:34:37.099Z,-2.38
2022-12-28T00:35:09.165Z,-2.38
2022-12-28T00:35:40.953Z,-2.38
2022-12-28T00:36:13.026Z,-2.38
2022-12-28T00:37:08.836Z,-2.38
2022-12-28T00:37:16.665Z,-2.38
2022-12-28T00:37:48.768Z,-2.50
2022-12-28T00:38:05.081Z,-2.50
2022-12-28T00:38:48.790Z,-2.50
2022-12-28T00:39:20.938Z,-2.50
2022-12-28T00:39:52.652Z,-2.50
2022-12-28T00:40:24.980Z,-2.50
2022-12-28T00:40:56.890Z,-2.50
2022-12-28T00:41:28.642Z,-2.50
2022-12-28T00:42:00.700Z,-2.50
2022-12-28T00:42:32.792Z,-2.50
2022-12-28T00:42:48.690Z,-2.50
2022-12-28T00:43:20.785Z,-2.50
2022-12-28T00:43:36.718Z,-2.50
2022-12-28T00:44:08.425Z,-2.50
2022-12-28T00:44:40.524Z,-2.50
2022-12-28T00:45:13.557Z,-2.38
2022-12-28T00:45:44.632Z,-2.38
2022-12-28T00:46:16.429Z,-2.38
2022-12-28T00:46:48.441Z,-2.38
2022-12-28T00:47:05.003Z,-2.38
2022-12-28T00:47:36.321Z,-2.38
2022-12-28T00:48:20.773Z,-2.38
2022-12-28T00:48:52.356Z,-2.38
2022-12-28T00:49:24.540Z,-2.38
2022-12-28T00:49:56.397Z,-2.38
2022-12-28T00:50:28.531Z,-2.38
2022-12-28T00:51:00.284Z,-2.38
2022-12-28T00:51:32.257Z,-2.27
2022-12-28T00:52:04.928Z,-2.27
2022-12-28T00:52:36.339Z,-2.27
2022-12-28T00:53:08.204Z,-2.27
2022-12-28T00:53:40.201Z,-2.27
2022-12-28T00:54:12.303Z,-2.27
2022-12-28T00:54:44.135Z,-2.27
2022-12-28T00:55:16.331Z,-2.27
2022-12-28T00:55:48.084Z,-2.27
2022-12-28T00:56:20.147Z,-2.27
2022-12-28T00:56:52.305Z,-2.27
2022-12-28T00:57:24.035Z,-2.38
2022-12-28T00:57:55.870Z,-2.38
2022-12-28T00:58:27.979Z,-2.38
2022-12-28T00:59:00.353Z,-2.38
2022-12-28T00:59:31.942Z,-2.38
2022-12-28T01:00:06.587Z,-2.38
2022-12-28T01:00:35.998Z,-2.38
2022-12-28T01:01:07.977Z,-2.38
2022-12-28T01:01:40.084Z,-2.38
2022-12-28T01:02:12.325Z,-2.38
2022-12-28T01:02:43.762Z,-2.27
2022-12-28T01:03:15.736Z,-2.27
2022-12-28T01:03:47.771Z,-2.27
2022-12-28T01:04:04.773Z,-2.27
2022-12-28T01:04:35.668Z,-2.27
2022-12-28T01:05:19.980Z,-2.27
2022-12-28T01:05:51.615Z,-2.27
2022-12-28T01:06:23.986Z,-2.27
2022-12-28T01:06:55.554Z,-2.27
2022-12-28T01:07:27.642Z,-2.27
2022-12-28T01:07:59.811Z,-2.27
2022-12-28T01:08:31.544Z,-2.27
2022-12-28T01:09:04.668Z,-2.27
2022-12-28T01:09:35.472Z,-2.27
2022-12-28T01:10:07.827Z,-2.27
2022-12-28T01:10:39.315Z,-2.27
2022-12-28T01:11:11.382Z,-2.27
2022-12-28T01:11:43.555Z,-2.27
2022-12-28T01:12:15.445Z,-2.27
2022-12-28T01:12:47.221Z,-2.27
2022-12-28T01:13:04.324Z,-2.27
2022-12-28T01:13:47.267Z,-2.22
2022-12-28T01:14:19.295Z,-2.22
2022-12-28T01:14:51.202Z,-2.22
2022-12-28T01:15:23.668Z,-2.22
2022-12-28T01:15:55.286Z,-2.22
2022-12-28T01:16:27.279Z,-2.11
2022-12-28T01:16:59.287Z,-2.11
2022-12-28T01:17:31.217Z,-2.11
2022-12-28T01:18:03.930Z,-2.11
2022-12-28T01:18:35.120Z,-2.11
2022-12-28T01:19:06.947Z,-2.11
2022-12-28T01:19:38.969Z,-2.11
2022-12-28T01:20:11.363Z,-2.11
2022-12-28T01:20:43.257Z,-2.11
2022-12-28T01:21:15.063Z,-2.11
2022-12-28T01:21:46.867Z,-2.11
2022-12-28T01:22:04.251Z,-2.11
2022-12-28T01:22:34.870Z,-2.11
2022-12-28T01:23:18.937Z,-2.11
2022-12-28T01:23:50.790Z,-2.11
2022-12-28T01:24:22.939Z,-2.11
2022-12-28T01:24:55.051Z,-2.11
2022-12-28T01:25:27.106Z,-2.11
2022-12-28T01:25:58.710Z,-2.11
2022-12-28T01:26:30.838Z,-2.11
2022-12-28T01:26:46.817Z,-2.11
2022-12-28T01:27:31.025Z,-2.11
2022-12-28T01:28:03.880Z,-2.11
2022-12-28T01:28:34.600Z,-2.11
2022-12-28T01:29:06.615Z,-2.11
2022-12-28T01:29:38.583Z,-2.11
2022-12-28T01:30:12.167Z,-2.11
2022-12-28T01:30:42.651Z,-2.11
2022-12-28T01:31:14.501Z,-2.11
2022-12-28T01:31:46.713Z,-2.11
2022-12-28T01:32:18.623Z,-2.11
2022-12-28T01:32:50.582Z,-2.11
2022-12-28T01:33:22.576Z,-2.11
2022-12-28T01:33:54.610Z,-2.11
2022-12-28T01:34:26.446Z,-2.11
2022-12-28T01:34:58.439Z,-2.11
2022-12-28T01:35:30.760Z,-2.11
2022-12-28T01:35:46.834Z,-2.11
2022-12-28T01:36:18.298Z,-2.11
2022-12-28T01:36:34.491Z,-2.11
2022-12-28T01:37:06.395Z,-2.11
2022-12-28T01:37:38.150Z,-2.11
2022-12-28T01:38:10.412Z,-2.11
2022-12-28T01:38:42.564Z,-2.11
2022-12-28T01:39:14.437Z,-2.11
2022-12-28T01:39:46.218Z,-2.11
2022-12-28T01:40:03.569Z,-2.11
2022-12-28T01:40:34.178Z,-2.11
2022-12-28T01:41:18.213Z,-2.11
2022-12-28T01:41:50.177Z,-2.11
2022-12-28T01:42:22.239Z,-2.11
2022-12-28T01:42:54.099Z,-2.11
2022-12-28T01:43:29.672Z,-2.11
2022-12-28T01:43:57.914Z,-2.00
2022-12-28T01:44:30.237Z,-2.00
2022-12-28T01:44:46.204Z,-2.00
2022-12-28T01:45:30.495Z,-2.00
2022-12-28T01:46:02.578Z,-2.00
2022-12-28T01:46:33.953Z,-2.00
2022-12-28T01:47:05.893Z,-2.00
2022-12-28T01:47:37.920Z,-2.00
2022-12-28T01:48:09.991Z,-2.00
2022-12-28T01:48:42.050Z,-2.00
2022-12-28T01:49:14.048Z,-2.00
2022-12-28T01:49:45.807Z,-2.00
2022-12-28T01:50:18.068Z,-2.00
2022-12-28T01:50:49.711Z,-1.88
2022-12-28T01:51:21.837Z,-1.88
2022-12-28T01:51:53.815Z,-1.88
2022-12-28T01:52:25.817Z,-1.88
2022-12-28T01:52:57.792Z,-1.88
2022-12-28T01:53:29.438Z,-1.88
2022-12-28T01:54:02.167Z,-1.88
2022-12-28T01:54:33.811Z,-1.88
2022-12-28T01:55:05.752Z,-1.88
2022-12-28T01:55:37.589Z,-1.88
2022-12-28T01:56:09.616Z,-1.88
2022-12-28T01:56:41.471Z,-1.88
2022-12-28T01:57:13.741Z,-1.88
2022-12-28T01:57:45.502Z,-1.88
2022-12-28T01:58:01.981Z,-1.88
2022-12-28T01:58:33.503Z,-1.88
2022-12-28T01:59:17.521Z,-1.88
2022-12-28T01:59:49.350Z,-1.88
2022-12-28T02:00:21.913Z,-1.77
2022-12-28T02:00:53.490Z,-1.77
2022-12-28T02:01:25.650Z,-1.77
2022-12-28T02:01:57.682Z,-1.77
2022-12-28T02:02:29.302Z,-1.77
2022-12-28T02:02:45.537Z,-1.77
2022-12-28T02:03:29.140Z,-1.77
2022-12-28T02:04:01.770Z,-1.77
2022-12-28T02:04:33.280Z,-1.72
2022-12-28T02:05:05.616Z,-1.72
2022-12-28T02:05:37.197Z,-1.72
2022-12-28T02:06:09.218Z,-1.72
2022-12-28T02:06:41.061Z,-1.72
2022-12-28T02:07:13.345Z,-1.72
2022-12-28T02:07:45.048Z,-1.72
2022-12-28T02:08:17.239Z,-1.77
2022-12-28T02:08:48.960Z,-1.77
2022-12-28T02:09:21.039Z,-1.72
2022-12-28T02:10:41.493Z,-1.72
2022-12-28T02:10:53.303Z,-1.72
2022-12-28T02:11:24.935Z,-1.72
2022-12-28T02:11:56.807Z,-1.61
2022-12-28T02:12:29.088Z,-1.61
2022-12-28T02:13:01.429Z,-1.61
2022-12-28T02:13:32.831Z,-1.61
2022-12-28T02:14:05.351Z,-1.61
2022-12-28T02:14:36.791Z,-1.61
2022-12-28T02:15:09.926Z,-1.61
2022-12-28T02:15:40.964Z,-1.61
2022-12-28T02:16:13.149Z,-1.50
2022-12-28T02:16:44.774Z,-1.50
2022-12-28T02:17:16.701Z,-1.61
2022-12-28T02:17:48.605Z,-1.61
2022-12-28T02:18:20.522Z,-1.50
2022-12-28T02:18:52.754Z,-1.50
2022-12-28T02:19:24.658Z,-1.50
2022-12-28T02:19:56.588Z,-1.50
2022-12-28T02:20:28.772Z,-1.50
2022-12-28T02:21:00.648Z,-1.50
2022-12-28T02:21:32.576Z,-1.61
2022-12-28T02:22:05.090Z,-1.61
2022-12-28T02:22:36.446Z,-1.61
2022-12-28T02:23:08.391Z,-1.61
2022-12-28T02:23:40.677Z,-1.61
2022-12-28T02:24:12.326Z,-1.61
2022-12-28T02:24:44.437Z,-1.61
2022-12-28T02:25:16.639Z,-1.61
2022-12-28T02:25:48.573Z,-1.61
2022-12-28T02:26:20.181Z,-1.61
2022-12-28T02:26:52.413Z,-1.61
2022-12-28T02:27:24.425Z,-1.61
2022-12-28T02:27:56.238Z,-1.50
2022-12-28T02:28:28.030Z,-1.50
2022-12-28T02:28:44.356Z,-1.50
2022-12-28T02:29:16.302Z,-1.50
2022-12-28T02:30:00.509Z,-1.50
2022-12-28T02:30:32.639Z,-1.50
2022-12-28T02:31:04.924Z,-1.50
2022-12-28T02:31:35.998Z,-1.50
2022-12-28T02:32:08.070Z,-1.50
2022-12-28T02:32:40.345Z,-1.50
2022-12-28T02:33:11.972Z,-1.50
2022-12-28T02:33:44.340Z,-1.50
2022-12-28T02:34:16.085Z,-1.50
2022-12-28T02:34:48.000Z,-1.50
2022-12-28T02:35:20.183Z,-1.38
2022-12-28T02:35:51.891Z,-1.38
2022-12-28T02:36:23.849Z,-1.38
2022-12-28T02:36:55.959Z,-1.38
2022-12-28T02:37:27.697Z,-1.38
2022-12-28T02:37:44.274Z,-1.38
2022-12-28T02:38:27.697Z,-1.50
2022-12-28T02:38:59.734Z,-1.61
2022-12-28T02:39:31.805Z,-1.50
2022-12-28T02:40:05.088Z,-1.50
2022-12-28T02:40:35.597Z,-1.50
2022-12-28T02:41:07.685Z,-1.50
2022-12-28T02:41:39.684Z,-1.50
2022-12-28T02:42:11.619Z,-1.50
2022-12-28T02:42:43.870Z,-1.50
2022-12-28T02:42:59.664Z,-1.50
2022-12-28T02:43:43.898Z,-1.50
2022-12-28T02:44:15.659Z,-1.50
2022-12-28T02:44:47.458Z,-1.50
2022-12-28T02:45:19.860Z,-1.50
2022-12-28T02:45:51.608Z,-1.50
2022-12-28T02:46:23.692Z,-1.50
2022-12-28T02:46:55.310Z,-1.38
2022-12-28T02:47:27.415Z,-1.38
2022-12-28T02:47:59.425Z,-1.27
2022-12-28T02:48:31.443Z,-1.27
2022-12-28T02:49:04.244Z,-1.27
2022-12-28T02:49:35.351Z,-1.27
2022-12-28T02:50:07.590Z,-1.27
2022-12-28T02:50:39.056Z,-1.22
2022-12-28T02:51:11.297Z,-1.22
2022-12-28T02:51:43.635Z,-1.22
2022-12-28T02:52:15.248Z,-1.22
2022-12-28T02:52:47.038Z,-1.22
2022-12-28T02:53:19.129Z,-1.22
2022-12-28T02:53:51.158Z,-1.22
2022-12-28T02:54:23.363Z,-1.11
2022-12-28T02:54:55.049Z,-1.11
2022-12-28T02:55:27.244Z,-1.11
2022-12-28T02:55:59.046Z,-1.11
2022-12-28T02:56:31.099Z,-1.11
2022-12-28T02:57:03.560Z,-1.11
2022-12-28T02:57:34.989Z,-1.11
2022-12-28T02:58:07.029Z,-1.11
2022-12-28T02:58:38.943Z,-1.11
2022-12-28T02:59:10.971Z,-1.11
2022-12-28T02:59:43.123Z,-1.11
2022-12-28T02:59:58.998Z,-1.11
2022-12-28T03:00:43.397Z,-1.00
2022-12-28T03:01:14.959Z,-1.00
2022-12-28T03:01:46.903Z,-1.00
2022-12-28T03:02:18.935Z,-1.00
2022-12-28T03:02:50.854Z,-1.00
2022-12-28T03:03:23.035Z,-1.00
2022-12-28T03:03:54.736Z,-1.00
2022-12-28T03:04:26.652Z,-1.00
2022-12-28T03:04:58.750Z,-1.00
2022-12-28T03:05:31.044Z,-1.00
2022-12-28T03:06:03.289Z,-1.00
2022-12-28T03:06:34.686Z,-1.00
2022-12-28T03:07:06.591Z,-1.00
2022-12-28T03:07:38.591Z,-1.00
2022-12-28T03:08:10.580Z,-.88
2022-12-28T03:08:42.771Z,-.88
2022-12-28T03:09:14.704Z,-.88
2022-12-28T03:09:46.597Z,-.88
2022-12-28T03:10:18.552Z,-.88
2022-12-28T03:10:50.572Z,-.77
2022-12-28T03:11:22.655Z,-.77
2022-12-28T03:11:54.602Z,-.77
2022-12-28T03:12:26.273Z,-.77
2022-12-28T03:12:42.439Z,-.77
2022-12-28T03:13:26.426Z,-.77
2022-12-28T03:13:58.394Z,-.77
2022-12-28T03:14:30.096Z,-.77
2022-12-28T03:15:05.852Z,-.77
2022-12-28T03:15:34.357Z,-.77
2022-12-28T03:16:06.252Z,-.77
2022-12-28T03:16:38.336Z,-.77
2022-12-28T03:17:10.278Z,-.77
2022-12-28T03:17:42.455Z,-.77
2022-12-28T03:18:14.488Z,-.77
2022-12-28T03:18:46.119Z,-.77
2022-12-28T03:19:18.010Z,-.77
2022-12-28T03:19:50.080Z,-.77
2022-12-28T03:20:22.551Z,-.77
2022-12-28T03:20:54.257Z,-.77
2022-12-28T03:21:25.961Z,-.77
2022-12-28T03:21:42.369Z,-.77
2022-12-28T03:22:14.115Z,-.72
2022-12-28T03:22:29.937Z,-.72
2022-12-28T03:23:02.626Z,-.72
2022-12-28T03:23:33.912Z,-.72
2022-12-28T03:24:05.893Z,-.72
2022-12-28T03:24:37.934Z,-.72
2022-12-28T03:25:10.258Z,-.72
2022-12-28T03:25:43.602Z,-.72
2022-12-28T03:25:58.936Z,-.72
2022-12-28T03:26:29.767Z,-.72
2022-12-28T03:27:13.835Z,-.61
2022-12-28T03:27:45.797Z,-.61
2022-12-28T03:28:17.628Z,-.61
2022-12-28T03:28:49.817Z,-.61
2022-12-28T03:29:21.823Z,-.61
2022-12-28T03:29:54.056Z,-.61
2022-12-28T03:30:25.928Z,-.72
2022-12-28T03:30:41.964Z,-.72
2022-12-28T03:31:25.783Z,-.61
2022-12-28T03:31:57.563Z,-.61
2022-12-28T03:32:29.589Z,-.72
2022-12-28T03:33:02.223Z,-.72
2022-12-28T03:33:17.648Z,-.72
2022-12-28T03:33:49.414Z,-.72
2022-12-28T03:34:33.547Z,-.61
2022-12-28T03:35:05.813Z,-.61
2022-12-28T03:35:37.401Z,-.61
2022-12-28T03:36:09.312Z,-.61
2022-12-28T03:36:41.708Z,-.61
2022-12-28T03:37:13.553Z,-.61
2022-12-28T03:37:29.383Z,-.61
2022-12-28T03:38:01.942Z,-.61
2022-12-28T03:38:45.323Z,-.61
2022-12-28T03:39:17.335Z,-.61
2022-12-28T03:39:49.197Z,-.72
2022-12-28T03:40:21.547Z,-.72
2022-12-28T03:40:53.380Z,-.61
2022-12-28T03:41:25.352Z,-.72
2022-12-28T03:41:57.073Z,-.72
2022-12-28T03:42:13.365Z,-.72
2022-12-28T03:42:57.153Z,-.72
2022-12-28T03:43:13.376Z,-.72
2022-12-28T03:43:57.155Z,-.61
2022-12-28T03:44:29.127Z,-.61
2022-12-28T03:45:02.591Z,-.61
2022-12-28T03:45:44.992Z,-.61
2022-12-28T03:46:05.330Z,-.61
2022-12-28T03:46:37.024Z,-.61
2022-12-28T03:47:08.823Z,-.61
2022-12-28T03:47:40.973Z,-.61
2022-12-28T03:47:57.030Z,-.61
2022-12-28T03:48:28.830Z,-.61
2022-12-28T03:49:13.016Z,-.61
2022-12-28T03:49:44.739Z,-.61
2022-12-28T03:50:17.037Z,-.61
2022-12-28T03:50:48.785Z,-.61
2022-12-28T03:51:20.965Z,-.61
2022-12-28T03:51:52.756Z,-.61
2022-12-28T03:52:24.649Z,-.61
2022-12-28T03:52:56.752Z,-.61
2022-12-28T03:53:28.752Z,-.61
2022-12-28T03:54:00.577Z,-.61
2022-12-28T03:54:32.820Z,-.61
2022-12-28T03:55:04.979Z,-.61
2022-12-28T03:55:36.596Z,-.61
2022-12-28T03:56:08.411Z,-.61
2022-12-28T03:56:40.565Z,-.61
2022-12-28T03:56:56.693Z,-.61
2022-12-28T03:57:40.808Z,-.61
2022-12-28T03:58:12.520Z,-.61
2022-12-28T03:58:44.339Z,-.61
2022-12-28T03:59:16.322Z,-.61
2022-12-28T03:59:48.376Z,-.61
2022-12-28T04:00:20.957Z,-.61
2022-12-28T04:00:52.485Z,-.61
2022-12-28T04:01:24.565Z,-.72
2022-12-28T04:01:40.806Z,-.72
2022-12-28T04:02:12.415Z,-.72
2022-12-28T04:02:28.391Z,-.72
2022-12-28T04:03:00.220Z,-.72
2022-12-28T04:03:32.279Z,-.72
2022-12-28T04:04:05.872Z,-.72
2022-12-28T04:04:36.290Z,-.72
2022-12-28T04:05:08.384Z,-.72
2022-12-28T04:05:40.129Z,-.61
2022-12-28T04:05:56.607Z,-.72
2022-12-28T04:06:28.091Z,-.50
2022-12-28T04:07:12.349Z,-.61
2022-12-28T04:07:43.989Z,-.50
2022-12-28T04:08:15.954Z,-.50
2022-12-28T04:08:48.108Z,-.50
2022-12-28T04:09:20.157Z,-.50
2022-12-28T04:09:52.166Z,-.38
2022-12-28T04:10:24.341Z,-.38
2022-12-28T04:10:56.071Z,-.38
2022-12-28T04:11:27.924Z,-.38
2022-12-28T04:11:59.839Z,-.38
2022-12-28T04:12:31.951Z,-.27
2022-12-28T04:13:04.251Z,-.27
2022-12-28T04:13:35.954Z,-.27
2022-12-28T04:14:10.969Z,-.38
2022-12-28T04:14:39.806Z,-.27
2022-12-28T04:15:13.329Z,-.27
2022-12-28T04:15:44.039Z,-.27
2022-12-28T04:16:15.649Z,-.38
2022-12-28T04:16:47.704Z,-.38
2022-12-28T04:17:19.711Z,-.38
2022-12-28T04:17:51.659Z,-.38
2022-12-28T04:18:23.904Z,-.38
2022-12-28T04:18:39.706Z,-.38
2022-12-28T04:19:11.770Z,-.38
2022-12-28T04:19:27.611Z,-.27
2022-12-28T04:19:59.587Z,-.38
2022-12-28T04:20:31.641Z,-.38
2022-12-28T04:21:04.532Z,-.27
2022-12-28T04:21:35.619Z,-.27
2022-12-28T04:22:07.516Z,-.27
2022-12-28T04:22:39.399Z,-.38
2022-12-28T04:22:55.559Z,-.27
2022-12-28T04:23:27.507Z,-.27
2022-12-28T04:24:11.641Z,-.38
2022-12-28T04:24:43.627Z,-.38
2022-12-28T04:25:15.516Z,-.27
2022-12-28T04:25:47.320Z,-.27
2022-12-28T04:26:19.248Z,-.38
2022-12-28T04:26:51.455Z,-.38
2022-12-28T04:27:23.505Z,-.38
2022-12-28T04:27:39.368Z,-.38
2022-12-28T04:28:23.298Z,-.38
2022-12-28T04:28:55.283Z,-.38
2022-12-28T04:29:27.278Z,-.38
2022-12-28T04:29:59.214Z,-.38
2022-12-28T04:30:31.544Z,-.38
2022-12-28T04:31:04.288Z,-.38
2022-12-28T04:31:35.368Z,-.38
2022-12-28T04:32:06.907Z,-.38
2022-12-28T04:32:39.036Z,-.38
2022-12-28T04:32:55.124Z,-.38
2022-12-28T04:33:39.157Z,-.38
2022-12-28T04:34:11.151Z,-.38
2022-12-28T04:34:48.247Z,-.38
2022-12-28T04:35:15.234Z,-.38
2022-12-28T04:35:47.312Z,-.50
2022-12-28T04:36:18.964Z,-.50
2022-12-28T04:36:50.964Z,-.50
2022-12-28T04:37:23.032Z,-.50
2022-12-28T04:37:54.763Z,-.50
2022-12-28T04:38:26.918Z,-.50
2022-12-28T04:38:58.723Z,-.50
2022-12-28T04:39:54.242Z,-.38
2022-12-28T04:40:04.176Z,-.38
2022-12-28T04:40:34.824Z,-.38
2022-12-28T04:41:06.636Z,-.38
2022-12-28T04:41:38.648Z,-.38
2022-12-28T04:41:54.830Z,-.38
2022-12-28T04:42:26.559Z,-.38
2022-12-28T04:43:10.798Z,-.38
2022-12-28T04:43:26.680Z,-.38
2022-12-28T04:44:10.626Z,-.38
2022-12-28T04:44:26.752Z,-.38
2022-12-28T04:45:15.665Z,-.38
2022-12-28T04:45:42.691Z,-.38
2022-12-28T04:46:14.511Z,-.38
2022-12-28T04:46:46.349Z,-.38
2022-12-28T04:47:18.409Z,-.38
2022-12-28T04:47:50.758Z,-.38
2022-12-28T04:48:22.333Z,-.38
2022-12-28T04:48:38.488Z,-.38
2022-12-28T04:49:22.253Z,-.38
2022-12-28T04:49:54.448Z,-.38
2022-12-28T04:50:27.208Z,-.38
2022-12-28T04:50:58.112Z,-.38
2022-12-28T04:51:30.270Z,-.38
2022-12-28T04:52:03.330Z,-.38
2022-12-28T04:52:34.209Z,-.38
2022-12-28T04:53:07.113Z,-.27
2022-12-28T04:53:38.178Z,-.27
2022-12-28T04:54:10.229Z,-.27
2022-12-28T04:54:42.308Z,-.27
2022-12-28T04:55:31.415Z,-.27
2022-12-28T04:55:45.989Z,-.27
2022-12-28T04:56:18.042Z,-.27
2022-12-28T04:56:50.298Z,-.27
2022-12-28T04:57:21.948Z,-.27
2022-12-28T04:57:38.036Z,-.27
2022-12-28T04:58:09.966Z,-.27
2022-12-28T04:58:26.038Z,-.27
2022-12-28T04:58:57.978Z,-.38
2022-12-28T04:59:29.972Z,-.38
2022-12-28T05:00:04.979Z,-.38
2022-12-28T05:00:34.132Z,-.38
2022-12-28T05:01:06.124Z,-.38
2022-12-28T05:01:37.990Z,-.38
2022-12-28T05:01:54.075Z,-.38
2022-12-28T05:02:25.863Z,-.38
2022-12-28T05:03:09.960Z,-.38
2022-12-28T05:03:41.777Z,-.38
2022-12-28T05:04:13.830Z,-.38
2022-12-28T05:04:45.635Z,-.38
2022-12-28T05:05:18.014Z,-.38
2022-12-28T05:05:49.785Z,-.38
2022-12-28T05:06:21.695Z,-.27
2022-12-28T05:06:37.663Z,-.27
2022-12-28T05:07:21.728Z,-.27
2022-12-28T05:07:53.791Z,-.27
2022-12-28T05:08:25.461Z,-.27
2022-12-28T05:08:57.604Z,-.27
2022-12-28T05:09:29.479Z,-.27
2022-12-28T05:10:02.594Z,-.22
2022-12-28T05:10:33.611Z,-.22
2022-12-28T05:11:05.516Z,-.22
2022-12-28T05:11:37.394Z,-.22
2022-12-28T05:12:09.494Z,-.22
2022-12-28T05:12:41.598Z,-.22
2022-12-28T05:13:13.317Z,-.11
2022-12-28T05:13:45.352Z,-.11
2022-12-28T05:14:17.362Z,-.11
2022-12-28T05:14:49.028Z,-.11
2022-12-28T05:15:21.911Z,-.11
2022-12-28T05:15:37.336Z,-.11
2022-12-28T05:16:09.364Z,-.11
2022-12-28T05:16:25.310Z,-.11
2022-12-28T05:16:57.064Z,-.11
2022-12-28T05:17:29.052Z,-.11
2022-12-28T05:18:01.290Z,-.11
2022-12-28T05:18:33.322Z,-.11
2022-12-28T05:19:05.118Z,-.11
2022-12-28T05:19:37.022Z,-.11
2022-12-28T05:19:53.189Z,-.11
2022-12-28T05:20:25.246Z,-.11
2022-12-28T05:21:09.135Z,-.11
2022-12-28T05:21:41.072Z,-.11
2022-12-28T05:22:12.935Z,-.11
2022-12-28T05:22:44.920Z,-.11
2022-12-28T05:23:16.910Z,-.11
2022-12-28T05:23:48.847Z,-.11
2022-12-28T05:24:21.023Z,-.11
2022-12-28T05:24:37.010Z,-.11
2022-12-28T05:25:21.257Z,-.11
2022-12-28T05:25:53.067Z,-.22
2022-12-28T05:26:24.802Z,-.22
2022-12-28T05:26:56.846Z,-.22
2022-12-28T05:27:28.717Z,-.22
2022-12-28T05:28:00.788Z,-.22
2022-12-28T05:28:32.827Z,-.22
2022-12-28T05:29:04.987Z,-.22
2022-12-28T05:29:36.668Z,-.22
2022-12-28T05:30:09.852Z,-.22
2022-12-28T05:30:40.521Z,-.22
2022-12-28T05:31:12.771Z,-.22
2022-12-28T05:31:44.725Z,-.22
2022-12-28T05:32:16.570Z,-.22
2022-12-28T05:32:48.742Z,-.22
2022-12-28T05:33:20.722Z,-.22
2022-12-28T05:33:36.697Z,-.22
2022-12-28T05:34:08.367Z,-.22
2022-12-28T05:34:24.616Z,-.22
2022-12-28T05:34:56.327Z,-.22
2022-12-28T05:35:28.510Z,-.22
2022-12-28T05:36:00.529Z,-.22
2022-12-28T05:36:32.552Z,-.22
2022-12-28T05:37:04.914Z,-.22
2022-12-28T05:37:36.384Z,-.22
2022-12-28T05:37:52.346Z,-.22
2022-12-28T05:38:24.289Z,-.22
2022-12-28T05:39:08.328Z,-.22
2022-12-28T05:39:40.212Z,-.22
2022-12-28T05:40:12.587Z,-.22
2022-12-28T05:40:44.314Z,-.22
2022-12-28T05:41:16.150Z,-.22
2022-12-28T05:41:48.358Z,-.22
2022-12-28T05:42:20.113Z,-.22
2022-12-28T05:42:36.331Z,-.22
2022-12-28T05:43:20.059Z,-.11
2022-12-28T05:43:52.135Z,-.11
2022-12-28T05:44:24.137Z,-.11
2022-12-28T05:44:56.024Z,-.11
2022-12-28T05:45:28.370Z,-.11
2022-12-28T05:46:00.314Z,-.11
2022-12-28T05:46:31.891Z,-.11
2022-12-28T05:47:04.922Z,-.11
2022-12-28T05:47:35.958Z,-.11
2022-12-28T05:48:07.917Z,-.11
2022-12-28T05:48:39.887Z,-.11
2022-12-28T05:49:12.108Z,-.11
2022-12-28T05:49:43.893Z,-.11
2022-12-28T05:50:16.106Z,-.11
2022-12-28T05:50:47.668Z,-.11
2022-12-28T05:51:19.592Z,-.11
2022-12-28T05:51:51.991Z,-.11
2022-12-28T05:52:23.911Z,-.11
2022-12-28T05:52:55.808Z,-.11
2022-12-28T05:53:27.734Z,-.11
2022-12-28T05:53:59.589Z,-.11
2022-12-28T05:54:31.657Z,-.11
2022-12-28T05:55:04.800Z,-.11
2022-12-28T05:55:35.623Z,-.11
2022-12-28T05:55:52.010Z,-.11
2022-12-28T05:56:23.643Z,-.11
2022-12-28T05:57:07.634Z,-.11
2022-12-28T05:57:39.818Z,-.11
2022-12-28T05:58:11.466Z,-.11
2022-12-28T05:58:43.738Z,-.11
2022-12-28T05:59:15.487Z,-.11
2022-12-28T05:59:47.459Z,-.11
2022-12-28T06:00:19.969Z,-.11
2022-12-28T06:00:35.529Z,-.11
2022-12-28T06:01:19.248Z,-.11
2022-12-28T06:01:51.762Z,-.11
2022-12-28T06:02:24.907Z,-.11
2022-12-28T06:02:55.224Z,-.11
2022-12-28T06:03:11.644Z,-.11
2022-12-28T06:03:43.384Z,-.11
2022-12-28T06:04:27.372Z,-.11
2022-12-28T06:04:59.014Z,-.11
2022-12-28T06:05:36.430Z,0
2022-12-28T06:06:04.325Z,0
2022-12-28T06:06:35.179Z,0
2022-12-28T06:07:07.056Z,0
2022-12-28T06:07:23.261Z,0
2022-12-28T06:07:55.207Z,0
2022-12-28T06:08:39.184Z,0
2022-12-28T06:09:11.105Z,0
2022-12-28T06:09:43.140Z,-.11
2022-12-28T06:10:15.263Z,-.11
2022-12-28T06:10:46.860Z,-.11
2022-12-28T06:11:18.997Z,-.11
2022-12-28T06:11:50.881Z,-.11
2022-12-28T06:12:07.133Z,-.11
2022-12-28T06:12:50.905Z,-.11
2022-12-28T06:13:22.920Z,-.11
2022-12-28T06:13:54.888Z,-.11
2022-12-28T06:14:26.784Z,0
2022-12-28T06:14:58.784Z,0
2022-12-28T06:15:31.239Z,0
2022-12-28T06:16:03.967Z,0
2022-12-28T06:16:34.700Z,0
2022-12-28T06:16:50.875Z,0
2022-12-28T06:17:22.719Z,0
2022-12-28T06:18:06.760Z,0
2022-12-28T06:18:38.660Z,0
2022-12-28T06:19:10.601Z,0
2022-12-28T06:19:42.924Z,0
2022-12-28T06:20:14.738Z,0
2022-12-28T06:20:46.682Z,.11
2022-12-28T06:21:18.370Z,0
2022-12-28T06:21:34.630Z,0
2022-12-28T06:22:18.433Z,0
2022-12-28T06:22:50.429Z,0
2022-12-28T06:23:22.587Z,0
2022-12-28T06:23:54.420Z,0
2022-12-28T06:24:26.307Z,0
2022-12-28T06:24:58.360Z,0
2022-12-28T06:25:30.968Z,0
2022-12-28T06:26:02.692Z,0
2022-12-28T06:26:34.428Z,0
2022-12-28T06:27:06.368Z,0
2022-12-28T06:27:38.306Z,0
2022-12-28T06:28:10.210Z,0
2022-12-28T06:28:42.243Z,0
2022-12-28T06:29:14.223Z,0
2022-12-28T06:29:46.207Z,0
2022-12-28T06:30:20.494Z,0
2022-12-28T06:30:34.293Z,0
2022-12-28T06:31:06.298Z,0
2022-12-28T06:31:49.962Z,0
2022-12-28T06:32:22.154Z,0
2022-12-28T06:32:53.982Z,0
2022-12-28T06:33:25.982Z,0
2022-12-28T06:33:58.023Z,0
2022-12-28T06:34:30.142Z,0
2022-12-28T06:35:02.579Z,0
2022-12-28T06:35:34.007Z,0
2022-12-28T06:36:06.082Z,0
2022-12-28T06:36:37.888Z,0
2022-12-28T06:37:09.692Z,0
2022-12-28T06:37:41.936Z,.11
2022-12-28T06:38:13.933Z,.11
2022-12-28T06:38:45.832Z,.11
2022-12-28T06:39:17.510Z,.11
2022-12-28T06:39:34.034Z,.11
2022-12-28T06:40:18.211Z,.11
2022-12-28T06:41:12.333Z,.11
2022-12-28T06:41:21.823Z,.11
2022-12-28T06:41:53.518Z,.11
2022-12-28T06:42:25.547Z,.11
2022-12-28T06:42:57.564Z,.11
2022-12-28T06:43:29.654Z,.11
2022-12-28T06:44:02.178Z,.11
2022-12-28T06:44:34.815Z,.11
2022-12-28T06:45:06.839Z,.11
2022-12-28T06:45:37.773Z,.11
2022-12-28T06:46:09.547Z,.11
2022-12-28T06:46:41.353Z,.11
2022-12-28T06:47:13.606Z,.11
2022-12-28T06:47:45.469Z,.11
2022-12-28T06:48:17.222Z,.11
2022-12-28T06:48:49.342Z,.11
2022-12-28T06:49:05.563Z,.11
2022-12-28T06:49:49.431Z,.11
2022-12-28T06:50:21.729Z,.11
2022-12-28T06:50:53.242Z,.11
2022-12-28T06:51:25.214Z,.11
2022-12-28T06:51:57.347Z,.11
2022-12-28T06:52:29.219Z,.11
2022-12-28T06:53:01.638Z,.11
2022-12-28T06:53:33.237Z,.11
2022-12-28T06:54:05.314Z,.11
2022-12-28T06:54:37.178Z,.11
2022-12-28T06:55:09.241Z,.11